Time;durP1;ratioP1;P1;durP2;ratioP2;P2;SDS_P1;SDS_P2;PMS_P1;PMS_P2;Temp;Humidity;BMP_temperature;BMP_pressure;BME280_temperature;BME280_humidity;BME280_pressure;Samples;Min_cycle;Max_cycle;Signal;HPM_P1;HPM_P2
2021/09/03 00:00:44;;;;;;;16.63;6.38;;;;;;;;;;4891752;29;20126;-61
2021/09/03 00:03:15;;;;;;;17.25;6.63;;;;;;;;;;4915851;28;20039;-61
2021/09/03 00:05:40;;;;;;;12.20;5.90;;;;;;;;;;4916456;28;20027;-61
2021/09/03 00:08:08;;;;;;;12.85;5.70;;;;;;;;;;4918668;28;20027;-60
2021/09/03 00:10:38;;;;;;;20.27;6.25;;;;;;;;;;4932779;28;20043;-60
2021/09/03 00:13:06;;;;;;;12.27;5.03;;;;;;;;;;4919863;28;20039;-60
2021/09/03 00:15:34;;;;;;;12.13;6.28;;;;;;;;;;4920112;28;20642;-61
2021/09/03 00:18:03;;;;;;;12.98;6.43;;;;;;;;;;4916019;28;20035;-61
2021/09/03 00:20:30;;;;;;;8.85;5.07;;;;;;;;;;4917594;28;20077;-61
2021/09/03 00:22:56;;;;;;;13.00;5.65;;;;;;;;;;4917898;28;20109;-61
2021/09/03 00:25:23;;;;;;;11.75;5.50;;;;;;;;;;4918042;28;20031;-61
2021/09/03 00:27:52;;;;;;;12.27;5.72;;;;;;;;;;4919065;28;20106;-60
2021/09/03 00:30:17;;;;;;;10.85;5.32;;;;;;;;;;4923466;28;20931;-61
2021/09/03 00:32:45;;;;;;;13.60;6.03;;;;;;;;;;4900953;29;20495;-61
2021/09/03 00:35:13;;;;;;;11.60;5.72;;;;;;;;;;4920140;28;20030;-61
2021/09/03 00:37:43;;;;;;;13.73;4.47;;;;;;;;;;4920074;28;20314;-61
2021/09/03 00:40:08;;;;;;;9.13;4.75;;;;;;;;;;4919673;28;20723;-60
2021/09/03 00:42:39;;;;;;;9.63;4.72;;;;;;;;;;4897976;28;20051;-60
2021/09/03 00:45:09;;;;;;;14.80;6.43;;;;;;;;;;4891851;29;20040;-60
2021/09/03 00:47:37;;;;;;;11.10;5.13;;;;;;;;;;4932016;28;20353;-61
2021/09/03 00:50:04;;;;;;;10.65;5.28;;;;;;;;;;4901471;28;20440;-61
2021/09/03 00:52:29;;;;;;;11.25;5.40;;;;;;;;;;4921306;28;20118;-61
2021/09/03 00:54:59;;;;;;;13.23;5.78;;;;;;;;;;4920143;28;20024;-60
2021/09/03 00:57:25;;;;;;;19.55;6.00;;;;;;;;;;4932947;28;20036;-61
2021/09/03 00:59:55;;;;;;;20.52;6.03;;;;;;;;;;4920534;28;20024;-60
2021/09/03 01:02:21;;;;;;;16.95;7.22;;;;;;;;;;4919484;28;20070;-60
2021/09/03 01:04:47;;;;;;;18.63;5.47;;;;;;;;;;4931371;28;20040;-60
2021/09/03 01:07:13;;;;;;;12.50;5.95;;;;;;;;;;4916211;28;20149;-60
2021/09/03 01:09:41;;;;;;;17.95;5.85;;;;;;;;;;4916404;28;20395;-61
2021/09/03 01:12:06;;;;;;;13.18;6.10;;;;;;;;;;4916331;28;20030;-60
2021/09/03 01:14:32;;;;;;;14.57;5.30;;;;;;;;;;4918527;28;20035;-60
2021/09/03 01:16:57;;;;;;;10.25;4.72;;;;;;;;;;4887546;28;20024;-60
2021/09/03 01:19:25;;;;;;;6.68;3.92;;;;;;;;;;4915554;28;20051;-61
2021/09/03 01:21:52;;;;;;;5.40;3.00;;;;;;;;;;4917730;28;20082;-61
2021/09/03 01:24:18;;;;;;;7.38;3.42;;;;;;;;;;4918323;28;20232;-60
2021/09/03 01:26:44;;;;;;;5.53;3.00;;;;;;;;;;4916721;28;20023;-61
2021/09/03 01:29:12;;;;;;;5.47;2.40;;;;;;;;;;4918809;28;20095;-60
2021/09/03 01:31:40;;;;;;;4.95;2.45;;;;;;;;;;4922624;28;20515;-60
2021/09/03 01:34:08;;;;;;;5.00;2.63;;;;;;;;;;4918007;28;20067;-60
2021/09/03 01:36:38;;;;;;;5.65;2.88;;;;;;;;;;4903075;29;20062;-60
2021/09/03 01:39:06;;;;;;;6.15;3.25;;;;;;;;;;4921367;28;20447;-60
2021/09/03 01:41:32;;;;;;;5.15;2.95;;;;;;;;;;4909689;29;20055;-60
2021/09/03 01:44:00;;;;;;;4.97;2.85;;;;;;;;;;4919863;28;20035;-59
2021/09/03 01:46:28;;;;;;;5.65;2.90;;;;;;;;;;4918985;28;20545;-60
2021/09/03 01:48:53;;;;;;;5.53;2.83;;;;;;;;;;4922269;28;20046;-59
2021/09/03 01:51:20;;;;;;;5.40;3.00;;;;;;;;;;4934897;28;21947;-59
2021/09/03 01:53:48;;;;;;;6.78;3.40;;;;;;;;;;4902644;28;20027;-60
2021/09/03 01:56:39;;;;;;;9.95;4.28;;;;;;;;;;4934703;28;20035;-60
2021/09/03 01:59:05;;;;;;;11.95;4.07;;;;;;;;;;4920019;28;20038;-59
2021/09/03 02:02:06;;;;;;;8.50;4.65;;;;;;;;;;4934623;28;20039;-59
2021/09/03 02:04:34;;;;;;;7.93;3.78;;;;;;;;;;4920775;28;20103;-59
2021/09/03 02:07:02;;;;;;;12.82;3.80;;;;;;;;;;4901188;29;20032;-59
2021/09/03 02:09:32;;;;;;;8.38;4.00;;;;;;;;;;4934658;28;20130;-59
2021/09/03 02:12:02;;;;;;;10.80;4.55;;;;;;;;;;4919683;28;20039;-59
2021/09/03 02:14:32;;;;;;;9.90;4.63;;;;;;;;;;4926519;28;20039;-59
2021/09/03 02:16:57;;;;;;;9.98;4.03;;;;;;;;;;4917639;28;20070;-60
2021/09/03 02:19:23;;;;;;;5.97;3.63;;;;;;;;;;4920581;28;20015;-60
2021/09/03 02:21:50;;;;;;;10.07;4.10;;;;;;;;;;4918380;28;20040;-60
2021/09/03 02:24:18;;;;;;;15.85;4.30;;;;;;;;;;4922116;28;20032;-59
2021/09/03 02:26:46;;;;;;;8.07;3.15;;;;;;;;;;4919476;28;20035;-60
2021/09/03 02:29:13;;;;;;;7.35;3.25;;;;;;;;;;4919183;28;20666;-59
2021/09/03 02:31:46;;;;;;;5.47;3.15;;;;;;;;;;4905357;29;20039;-60
2021/09/03 02:34:11;;;;;;;5.97;3.42;;;;;;;;;;4916909;28;20170;-59
2021/09/03 02:36:37;;;;;;;13.30;4.63;;;;;;;;;;4920220;28;20121;-60
2021/09/03 02:42:37;;;;;;;9.40;4.03;;;;;;;;;;4919112;28;20082;-61
2021/09/03 02:45:05;;;;;;;11.25;4.40;;;;;;;;;;4925233;28;20039;-59
2021/09/03 02:47:33;;;;;;;13.82;5.30;;;;;;;;;;4900343;29;20114;-60
2021/09/03 02:49:59;;;;;;;9.43;3.97;;;;;;;;;;4920267;28;20235;-60
2021/09/03 02:52:24;;;;;;;8.68;4.07;;;;;;;;;;4907600;28;20728;-59
2021/09/03 02:54:55;;;;;;;6.50;3.60;;;;;;;;;;4919807;28;20020;-61
2021/09/03 02:57:26;;;;;;;6.25;2.83;;;;;;;;;;4918114;28;20659;-59
2021/09/03 02:59:54;;;;;;;4.82;2.67;;;;;;;;;;4903459;29;20090;-60
2021/09/03 03:02:21;;;;;;;7.25;3.30;;;;;;;;;;4912920;28;20036;-59
2021/09/03 03:04:49;;;;;;;4.18;2.13;;;;;;;;;;4933293;28;20070;-60
2021/09/03 03:07:15;;;;;;;4.68;2.92;;;;;;;;;;4918154;28;20785;-60
2021/09/03 03:09:40;;;;;;;6.93;2.88;;;;;;;;;;4898754;28;20052;-59
2021/09/03 03:12:10;;;;;;;7.43;2.60;;;;;;;;;;4915901;28;20026;-59
2021/09/03 03:14:38;;;;;;;4.45;2.65;;;;;;;;;;4917617;28;20044;-59
2021/09/03 03:17:08;;;;;;;7.82;2.80;;;;;;;;;;4900199;28;20450;-60
2021/09/03 03:19:38;;;;;;;4.88;2.30;;;;;;;;;;4909327;29;20031;-61
2021/09/03 03:22:03;;;;;;;3.17;2.25;;;;;;;;;;4917351;28;20050;-60
2021/09/03 03:24:29;;;;;;;7.40;2.45;;;;;;;;;;4924208;28;20035;-59
2021/09/03 03:26:57;;;;;;;4.15;2.28;;;;;;;;;;4917751;28;20030;-60
2021/09/03 03:29:27;;;;;;;5.82;2.42;;;;;;;;;;4917212;28;20066;-59
2021/09/03 03:31:55;;;;;;;8.05;2.35;;;;;;;;;;4908629;28;20979;-60
2021/09/03 03:34:22;;;;;;;6.35;2.67;;;;;;;;;;4933745;28;20042;-60
2021/09/03 03:36:48;;;;;;;8.90;2.70;;;;;;;;;;4886161;28;20039;-60
2021/09/03 03:39:13;;;;;;;4.88;2.95;;;;;;;;;;4918990;28;20074;-60
2021/09/03 03:41:39;;;;;;;2.40;1.83;;;;;;;;;;4918423;28;20072;-60
2021/09/03 03:44:07;;;;;;;3.03;2.08;;;;;;;;;;4931817;28;20042;-59
2021/09/03 03:46:34;;;;;;;5.80;2.00;;;;;;;;;;4906226;28;20046;-59
2021/09/03 03:49:00;;;;;;;3.28;2.00;;;;;;;;;;4921127;28;20057;-59
2021/09/03 03:51:27;;;;;;;3.28;1.85;;;;;;;;;;4932668;28;20681;-60
2021/09/03 03:54:05;;;;;;;5.03;1.92;;;;;;;;;;4891097;29;20027;-59
2021/09/03 03:56:35;;;;;;;3.92;2.22;;;;;;;;;;4915193;28;20035;-59
2021/09/03 03:59:06;;;;;;;5.07;2.80;;;;;;;;;;4918701;28;20276;-60
2021/09/03 04:01:32;;;;;;;3.92;2.08;;;;;;;;;;4931133;28;20036;-59
2021/09/03 04:03:57;;;;;;;5.55;2.33;;;;;;;;;;4916451;28;20082;-61
2021/09/03 04:06:22;;;;;;;2.25;1.75;;;;;;;;;;4917535;28;20035;-59
2021/09/03 04:08:48;;;;;;;3.83;2.45;;;;;;;;;;4917960;28;20158;-59
2021/09/03 04:11:16;;;;;;;4.45;2.67;;;;;;;;;;4907019;29;20047;-59
2021/09/03 04:13:41;;;;;;;11.02;2.60;;;;;;;;;;4915928;28;20050;-60
2021/09/03 04:19:21;;;;;;;15.32;3.30;;;;;;;;;;4931973;28;20043;-59
2021/09/03 04:21:46;;;;;;;9.82;3.15;;;;;;;;;;4921104;28;20443;-59
2021/09/03 04:24:14;;;;;;;9.55;3.50;;;;;;;;;;4884771;29;20036;-60
2021/09/03 04:26:44;;;;;;;11.52;3.90;;;;;;;;;;4900350;28;20036;-60
2021/09/03 04:29:12;;;;;;;6.72;3.70;;;;;;;;;;4917633;28;20122;-60
2021/09/03 04:31:38;;;;;;;6.30;2.70;;;;;;;;;;4890381;29;20511;-60
2021/09/03 04:34:05;;;;;;;7.05;3.10;;;;;;;;;;4919133;28;20039;-60
2021/09/03 04:37:06;;;;;;;6.05;3.28;;;;;;;;;;4920615;28;20953;-60
2021/09/03 04:39:32;;;;;;;4.65;2.60;;;;;;;;;;4915525;28;20380;-59
2021/09/03 04:41:59;;;;;;;4.47;2.70;;;;;;;;;;4918010;28;20051;-59
2021/09/03 04:44:27;;;;;;;5.15;2.78;;;;;;;;;;4918227;28;20406;-59
2021/09/03 04:46:53;;;;;;;5.22;2.92;;;;;;;;;;4921254;28;20059;-59
2021/09/03 04:49:23;;;;;;;5.50;3.42;;;;;;;;;;4915800;28;20038;-59
2021/09/03 04:51:51;;;;;;;5.50;2.35;;;;;;;;;;4916603;28;20039;-59
2021/09/03 04:54:17;;;;;;;9.38;4.47;;;;;;;;;;4918128;28;20670;-59
2021/09/03 04:56:42;;;;;;;5.10;2.53;;;;;;;;;;4931033;28;20038;-59
2021/09/03 04:59:08;;;;;;;4.32;2.75;;;;;;;;;;4901124;29;20946;-60
2021/09/03 05:01:33;;;;;;;3.10;2.08;;;;;;;;;;4918973;28;20035;-59
2021/09/03 05:04:01;;;;;;;2.15;1.75;;;;;;;;;;4903744;28;20039;-59
2021/09/03 05:06:29;;;;;;;1.90;1.52;;;;;;;;;;4918458;28;20126;-60
2021/09/03 05:09:31;;;;;;;3.22;2.35;;;;;;;;;;4920044;28;20031;-59
2021/09/03 05:11:56;;;;;;;3.20;2.33;;;;;;;;;;4918192;28;20046;-60
2021/09/03 05:14:27;;;;;;;3.78;2.55;;;;;;;;;;4920538;28;20031;-60
2021/09/03 05:16:54;;;;;;;8.85;3.00;;;;;;;;;;4903914;28;20046;-60
2021/09/03 05:19:20;;;;;;;6.22;2.72;;;;;;;;;;4905647;29;20057;-59
2021/09/03 05:21:45;;;;;;;4.65;2.50;;;;;;;;;;4927973;28;21123;-61
2021/09/03 05:24:13;;;;;;;7.15;3.17;;;;;;;;;;4904252;29;20414;-60
2021/09/03 05:26:42;;;;;;;9.63;3.78;;;;;;;;;;4919066;28;20395;-60
2021/09/03 05:29:07;;;;;;;7.93;3.88;;;;;;;;;;4920880;28;20030;-58
2021/09/03 05:31:32;;;;;;;8.60;3.97;;;;;;;;;;4889793;28;20089;-60
2021/09/03 05:33:58;;;;;;;7.43;3.45;;;;;;;;;;4920596;28;20043;-60
2021/09/03 05:36:26;;;;;;;8.77;4.05;;;;;;;;;;4920225;28;20555;-60
2021/09/03 05:38:54;;;;;;;11.35;4.55;;;;;;;;;;4920505;28;20027;-60
2021/09/03 05:41:24;;;;;;;9.85;4.15;;;;;;;;;;4901769;28;20035;-60
2021/09/03 05:43:50;;;;;;;8.45;4.70;;;;;;;;;;4919490;28;20043;-60
2021/09/03 05:46:16;;;;;;;12.05;5.88;;;;;;;;;;4919765;28;20050;-59
2021/09/03 05:48:44;;;;;;;12.93;5.32;;;;;;;;;;4902685;28;20040;-59
2021/09/03 05:54:46;;;;;;;15.77;5.85;;;;;;;;;;4920293;28;20035;-59
2021/09/03 05:57:14;;;;;;;12.07;5.07;;;;;;;;;;4919003;28;20032;-59
2021/09/03 06:00:03;;;;;;;17.42;5.30;;;;;;;;;;4908800;29;20035;-60
2021/09/03 06:02:31;;;;;;;14.05;5.35;;;;;;;;;;4921716;28;20135;-60
2021/09/03 06:04:58;;;;;;;12.68;5.93;;;;;;;;;;4928041;28;20050;-59
2021/09/03 06:07:28;;;;;;;18.17;6.00;;;;;;;;;;4918745;28;20042;-59
2021/09/03 06:09:54;;;;;;;15.07;6.60;;;;;;;;;;4898903;29;22031;-59
2021/09/03 06:12:24;;;;;;;15.18;5.20;;;;;;;;;;4922327;28;20043;-59
2021/09/03 06:14:52;;;;;;;14.73;5.68;;;;;;;;;;4906482;28;20069;-59
2021/09/03 06:17:18;;;;;;;12.38;5.35;;;;;;;;;;4921806;28;20023;-59
2021/09/03 06:19:43;;;;;;;10.75;5.35;;;;;;;;;;4908760;29;20059;-59
2021/09/03 06:22:11;;;;;;;14.32;5.50;;;;;;;;;;4919356;28;20027;-59
2021/09/03 06:24:37;;;;;;;21.17;7.45;;;;;;;;;;4920379;28;20083;-60
2021/09/03 06:27:11;;;;;;;13.75;5.97;;;;;;;;;;4919874;28;20076;-59
2021/09/03 06:29:37;;;;;;;13.77;6.47;;;;;;;;;;4922822;28;20054;-59
2021/09/03 06:32:10;;;;;;;15.35;5.75;;;;;;;;;;4903281;29;20020;-59
2021/09/03 06:34:36;;;;;;;23.20;6.22;;;;;;;;;;4917785;28;20082;-59
2021/09/03 06:40:16;;;;;;;18.20;5.70;;;;;;;;;;4919725;28;20114;-59
2021/09/03 06:42:46;;;;;;;23.00;5.90;;;;;;;;;;4918606;28;20067;-59
2021/09/03 06:48:47;;;;;;;14.13;5.60;;;;;;;;;;4921059;28;20130;-59
2021/09/03 06:51:15;;;;;;;13.30;5.88;;;;;;;;;;4919163;28;20518;-59
2021/09/03 06:53:43;;;;;;;15.45;6.43;;;;;;;;;;4919003;28;20049;-59
2021/09/03 06:56:08;;;;;;;15.52;5.97;;;;;;;;;;4902536;28;20043;-59
2021/09/03 06:58:34;;;;;;;12.15;5.82;;;;;;;;;;4920093;28;20043;-59
2021/09/03 07:01:00;;;;;;;16.45;6.38;;;;;;;;;;4934720;28;20050;-59
2021/09/03 07:03:25;;;;;;;20.45;6.65;;;;;;;;;;4919167;28;20031;-59
2021/09/03 07:05:51;;;;;;;14.05;6.50;;;;;;;;;;4920863;28;20854;-59
2021/09/03 07:08:19;;;;;;;14.00;6.60;;;;;;;;;;4935113;28;20169;-60
2021/09/03 07:10:44;;;;;;;13.77;6.55;;;;;;;;;;4894864;29;20046;-59
2021/09/03 07:13:11;;;;;;;15.30;6.25;;;;;;;;;;4888929;29;20071;-59
2021/09/03 07:15:37;;;;;;;16.17;7.03;;;;;;;;;;4919676;28;20098;-60
2021/09/03 07:18:04;;;;;;;16.23;6.07;;;;;;;;;;4906245;29;20139;-59
2021/09/03 07:20:30;;;;;;;12.55;6.35;;;;;;;;;;4921664;28;20610;-59
2021/09/03 07:23:03;;;;;;;14.98;6.28;;;;;;;;;;4917707;28;20040;-60
2021/09/03 07:28:42;;;;;;;21.67;7.72;;;;;;;;;;4918733;28;20074;-60
2021/09/03 07:31:08;;;;;;;18.33;6.70;;;;;;;;;;4919976;28;21953;-60
2021/09/03 07:33:33;;;;;;;13.23;6.35;;;;;;;;;;4918261;28;20035;-60
2021/09/03 07:36:01;;;;;;;20.15;8.10;;;;;;;;;;4907627;29;20574;-60
2021/09/03 07:38:30;;;;;;;14.30;7.05;;;;;;;;;;4887212;29;20051;-60
2021/09/03 07:41:00;;;;;;;16.73;6.60;;;;;;;;;;4920413;28;20044;-60
2021/09/03 07:43:26;;;;;;;21.80;6.90;;;;;;;;;;4920087;28;20103;-60
2021/09/03 07:45:51;;;;;;;16.63;6.60;;;;;;;;;;4917955;28;20055;-59
2021/09/03 07:48:48;;;;;;;18.67;6.85;;;;;;;;;;4919154;28;20122;-59
2021/09/03 07:51:13;;;;;;;18.95;7.13;;;;;;;;;;4902766;28;20051;-60
2021/09/03 07:53:38;;;;;;;22.02;7.43;;;;;;;;;;4934187;28;20067;-60
2021/09/03 07:56:04;;;;;;;12.25;6.10;;;;;;;;;;4902801;28;20503;-59
2021/09/03 07:58:29;;;;;;;15.07;7.00;;;;;;;;;;4918716;28;20031;-60
2021/09/03 08:01:02;;;;;;;18.70;7.15;;;;;;;;;;4917800;28;20038;-60
2021/09/03 08:03:30;;;;;;;14.00;6.05;;;;;;;;;;4916385;28;20031;-60
2021/09/03 08:05:56;;;;;;;14.90;6.13;;;;;;;;;;4915793;28;20106;-61
2021/09/03 08:08:26;;;;;;;11.70;6.97;;;;;;;;;;4924574;28;20039;-59
2021/09/03 08:10:52;;;;;;;13.90;7.53;;;;;;;;;;4905826;29;20183;-60
2021/09/03 08:13:17;;;;;;;15.32;6.43;;;;;;;;;;4916639;28;20042;-59
2021/09/03 08:15:43;;;;;;;11.38;6.25;;;;;;;;;;4917923;28;20027;-60
2021/09/03 08:18:08;;;;;;;11.57;4.53;;;;;;;;;;4917562;28;20019;-59
2021/09/03 08:20:36;;;;;;;15.43;5.00;;;;;;;;;;4919954;28;20404;-59
2021/09/03 08:23:02;;;;;;;12.38;5.30;;;;;;;;;;4918626;28;20149;-59
2021/09/03 08:25:27;;;;;;;9.70;4.75;;;;;;;;;;4902738;29;20040;-59
2021/09/03 08:27:55;;;;;;;10.23;5.00;;;;;;;;;;4919556;28;20039;-59
2021/09/03 08:33:58;;;;;;;11.23;4.72;;;;;;;;;;4920030;28;20124;-59
2021/09/03 08:36:28;;;;;;;12.90;4.43;;;;;;;;;;4891827;29;20047;-61
2021/09/03 08:38:54;;;;;;;12.30;4.28;;;;;;;;;;4931175;28;20154;-60
2021/09/03 08:41:20;;;;;;;12.70;4.78;;;;;;;;;;4916562;28;20035;-60
2021/09/03 08:43:46;;;;;;;13.25;4.13;;;;;;;;;;4924872;28;20039;-60
2021/09/03 08:53:05;;;;;;;11.68;4.32;;;;;;;;;;4921471;28;20053;-60
2021/09/03 08:55:33;;;;;;;10.77;4.68;;;;;;;;;;4921061;28;20031;-60
2021/09/03 08:58:29;;;;;;;9.60;3.60;;;;;;;;;;4921958;28;21971;-61
2021/09/03 09:01:08;;;;;;;12.68;4.43;;;;;;;;;;4923236;28;20039;-61
2021/09/03 09:03:42;;;;;;;9.60;3.70;;;;;;;;;;4921021;28;20051;-61
2021/09/03 09:06:08;;;;;;;11.02;3.60;;;;;;;;;;4923029;28;20031;-61
2021/09/03 09:08:38;;;;;;;9.45;3.30;;;;;;;;;;4927827;28;20386;-61
2021/09/03 09:11:04;;;;;;;12.60;3.80;;;;;;;;;;4921440;28;20043;-61
2021/09/03 09:13:36;;;;;;;10.90;4.00;;;;;;;;;;4920129;28;20039;-61
2021/09/03 09:16:09;;;;;;;13.38;3.95;;;;;;;;;;4920914;28;20669;-61
2021/09/03 09:18:51;;;;;;;7.95;4.03;;;;;;;;;;4936491;28;20035;-61
2021/09/03 09:21:19;;;;;;;8.70;3.67;;;;;;;;;;4928209;28;20428;-61
2021/09/03 09:23:50;;;;;;;12.63;4.28;;;;;;;;;;4937620;28;20050;-61
2021/09/03 09:26:20;;;;;;;10.18;4.20;;;;;;;;;;4922061;28;20059;-61
2021/09/03 09:28:48;;;;;;;12.63;3.85;;;;;;;;;;4921155;28;20046;-61
2021/09/03 09:31:30;;;;;;;8.23;4.07;;;;;;;;;;4921650;28;20142;-59
2021/09/03 09:33:56;;;;;;;13.80;4.60;;;;;;;;;;4921082;28;20028;-61
2021/09/03 09:36:33;;;;;;;8.80;3.72;;;;;;;;;;4933714;28;20604;-60
2021/09/03 09:38:59;;;;;;;9.27;4.00;;;;;;;;;;4921979;28;20047;-61
2021/09/03 09:41:27;;;;;;;15.15;4.35;;;;;;;;;;4918311;28;21767;-60
2021/09/03 09:43:56;;;;;;;8.10;4.20;;;;;;;;;;4918466;28;20044;-60
2021/09/03 09:46:22;;;;;;;8.27;4.00;;;;;;;;;;4918638;28;20558;-61
2021/09/03 09:48:48;;;;;;;9.23;4.25;;;;;;;;;;4920540;28;20059;-61
2021/09/03 09:51:21;;;;;;;12.25;4.68;;;;;;;;;;4920193;28;20047;-61
2021/09/03 09:53:53;;;;;;;11.02;4.60;;;;;;;;;;4935555;28;20024;-60
2021/09/03 09:56:23;;;;;;;14.40;5.35;;;;;;;;;;4924454;28;20042;-61
2021/09/03 09:58:54;;;;;;;12.20;4.28;;;;;;;;;;4922054;28;20042;-61
2021/09/03 10:01:22;;;;;;;13.20;4.60;;;;;;;;;;4920334;28;20087;-61
2021/09/03 10:03:49;;;;;;;9.18;3.97;;;;;;;;;;4903836;28;20062;-61
2021/09/03 10:06:18;;;;;;;14.65;5.03;;;;;;;;;;4919721;28;20034;-61
2021/09/03 10:08:46;;;;;;;16.30;4.60;;;;;;;;;;4910118;28;20023;-61
2021/09/03 10:11:15;;;;;;;8.80;4.72;;;;;;;;;;4923264;28;20028;-60
2021/09/03 10:13:41;;;;;;;9.88;4.82;;;;;;;;;;4935197;28;20027;-61
2021/09/03 10:16:08;;;;;;;8.13;4.43;;;;;;;;;;4931518;28;20035;-61
2021/09/03 10:18:34;;;;;;;9.20;4.70;;;;;;;;;;4918495;28;20035;-61
2021/09/03 10:21:00;;;;;;;12.48;5.35;;;;;;;;;;4919864;28;20036;-61
2021/09/03 10:23:45;;;;;;;11.43;4.97;;;;;;;;;;4920518;28;21099;-61
2021/09/03 10:26:10;;;;;;;8.73;5.10;;;;;;;;;;4919506;28;20095;-61
2021/09/03 10:28:38;;;;;;;9.93;4.90;;;;;;;;;;4915846;28;20507;-61
2021/09/03 10:31:04;;;;;;;7.93;4.57;;;;;;;;;;4919904;28;20031;-63
2021/09/03 10:33:36;;;;;;;9.45;5.20;;;;;;;;;;4934712;28;20763;-63
2021/09/03 10:39:58;;;;;;;11.40;4.75;;;;;;;;;;4919217;28;20035;-62
2021/09/03 10:45:59;;;;;;;13.20;5.25;;;;;;;;;;4918571;28;20035;-62
2021/09/03 10:48:30;;;;;;;15.30;5.07;;;;;;;;;;4916710;28;20118;-61
2021/09/03 10:51:13;;;;;;;12.77;4.88;;;;;;;;;;4918032;28;20036;-61
2021/09/03 10:53:43;;;;;;;9.23;5.45;;;;;;;;;;4918345;28;20039;-61
2021/09/03 10:56:17;;;;;;;10.90;5.05;;;;;;;;;;4918086;28;20582;-61
2021/09/03 10:58:50;;;;;;;9.70;4.60;;;;;;;;;;4935383;28;20199;-61
2021/09/03 11:01:16;;;;;;;9.23;4.57;;;;;;;;;;4931682;28;20118;-61
2021/09/03 11:03:43;;;;;;;10.80;4.72;;;;;;;;;;4921245;28;20091;-63
2021/09/03 11:06:12;;;;;;;10.07;4.93;;;;;;;;;;4933518;28;20039;-64
2021/09/03 11:08:38;;;;;;;12.45;4.43;;;;;;;;;;4921968;28;20054;-63
2021/09/03 11:11:22;;;;;;;13.75;4.20;;;;;;;;;;4920657;28;20040;-63
2021/09/03 11:13:53;;;;;;;14.07;4.03;;;;;;;;;;4918663;28;20506;-63
2021/09/03 11:16:37;;;;;;;7.38;4.20;;;;;;;;;;4924988;28;20027;-63
2021/09/03 11:26:15;;;;;;;9.60;4.10;;;;;;;;;;4920745;28;20030;-60
2021/09/03 11:28:43;;;;;;;9.52;3.88;;;;;;;;;;4920269;28;20169;-60
2021/09/03 11:31:11;;;;;;;8.43;3.75;;;;;;;;;;4909109;29;20518;-60
2021/09/03 11:33:43;;;;;;;7.22;3.72;;;;;;;;;;4919817;28;20074;-61
2021/09/03 11:36:11;;;;;;;8.27;3.63;;;;;;;;;;4923900;28;20495;-66
2021/09/03 11:39:07;;;;;;;6.05;3.40;;;;;;;;;;4933668;28;20042;-61
2021/09/03 11:41:35;;;;;;;10.13;3.78;;;;;;;;;;4919229;28;20043;-61
2021/09/03 11:44:07;;;;;;;8.50;3.83;;;;;;;;;;4918094;28;20103;-61
2021/09/03 11:46:37;;;;;;;13.20;3.72;;;;;;;;;;4919233;28;20031;-61
2021/09/03 11:49:05;;;;;;;11.23;4.28;;;;;;;;;;4919911;28;20060;-61
2021/09/03 11:51:38;;;;;;;11.55;4.15;;;;;;;;;;4910960;29;20043;-61
2021/09/03 11:54:06;;;;;;;8.40;3.58;;;;;;;;;;4918394;28;20040;-62
2021/09/03 11:56:32;;;;;;;8.25;3.72;;;;;;;;;;4917777;28;20030;-61
2021/09/03 11:59:09;;;;;;;6.43;3.65;;;;;;;;;;4920296;28;20035;-62
2021/09/03 12:01:37;;;;;;;8.27;3.72;;;;;;;;;;4919008;28;20187;-62
2021/09/03 12:04:10;;;;;;;8.23;3.50;;;;;;;;;;4919585;28;20078;-62
2021/09/03 12:06:39;;;;;;;8.68;3.45;;;;;;;;;;4917019;28;20056;-62
2021/09/03 12:09:27;;;;;;;8.82;4.10;;;;;;;;;;4933366;28;20039;-61
2021/09/03 12:11:56;;;;;;;6.35;3.80;;;;;;;;;;4933057;28;20035;-61
2021/09/03 12:14:24;;;;;;;9.10;3.75;;;;;;;;;;4920560;28;20050;-61
2021/09/03 12:16:50;;;;;;;7.47;3.60;;;;;;;;;;4904663;28;22011;-61
2021/09/03 12:19:15;;;;;;;9.25;3.60;;;;;;;;;;4918440;28;20042;-61
2021/09/03 12:21:43;;;;;;;8.27;3.47;;;;;;;;;;4916609;28;20559;-62
2021/09/03 12:24:12;;;;;;;6.70;3.83;;;;;;;;;;4922212;28;20032;-62
2021/09/03 12:26:55;;;;;;;8.70;3.72;;;;;;;;;;4913910;28;20035;-62
2021/09/03 12:29:22;;;;;;;8.38;3.60;;;;;;;;;;4919651;28;20198;-61
2021/09/03 12:31:53;;;;;;;9.63;3.72;;;;;;;;;;4919446;28;20042;-61
2021/09/03 12:34:22;;;;;;;8.35;3.80;;;;;;;;;;4925859;28;20031;-61
2021/09/03 12:36:54;;;;;;;10.15;3.80;;;;;;;;;;4932975;28;22106;-60
2021/09/03 12:39:21;;;;;;;13.20;4.80;;;;;;;;;;4922254;28;20096;-61
2021/09/03 12:41:48;;;;;;;10.20;3.78;;;;;;;;;;4898939;29;20048;-61
2021/09/03 12:44:25;;;;;;;8.85;3.38;;;;;;;;;;4917465;28;20027;-63
2021/09/03 12:46:57;;;;;;;7.03;3.13;;;;;;;;;;4932544;28;20035;-63
2021/09/03 12:49:28;;;;;;;7.30;3.77;;;;;;;;;;4918339;28;20031;-60
2021/09/03 12:52:01;;;;;;;6.72;3.47;;;;;;;;;;4917564;28;20073;-61
2021/09/03 12:54:27;;;;;;;10.75;4.15;;;;;;;;;;4920081;28;20036;-61
2021/09/03 12:56:58;;;;;;;7.53;3.92;;;;;;;;;;4920523;28;20058;-61
2021/09/03 12:59:42;;;;;;;7.68;3.92;;;;;;;;;;4917726;28;20110;-61
2021/09/03 13:02:12;;;;;;;6.78;4.38;;;;;;;;;;4918490;28;20043;-61
2021/09/03 13:04:39;;;;;;;8.73;4.47;;;;;;;;;;4919590;28;20931;-61
2021/09/03 13:07:07;;;;;;;5.97;4.03;;;;;;;;;;4917998;28;20138;-62
2021/09/03 13:09:36;;;;;;;10.93;3.78;;;;;;;;;;4917387;28;20035;-62
2021/09/03 13:12:03;;;;;;;8.90;3.88;;;;;;;;;;4932108;28;20143;-62
2021/09/03 13:14:31;;;;;;;8.63;4.00;;;;;;;;;;4901602;29;20036;-62
2021/09/03 13:20:08;;;;;;;8.93;4.35;;;;;;;;;;4931179;28;20047;-62
2021/09/03 13:22:36;;;;;;;8.13;4.07;;;;;;;;;;4918293;28;20028;-62
2021/09/03 13:25:02;;;;;;;8.93;4.05;;;;;;;;;;4916678;28;20583;-62
2021/09/03 13:27:27;;;;;;;7.65;4.10;;;;;;;;;;4918075;28;20110;-61
2021/09/03 13:29:53;;;;;;;10.50;3.97;;;;;;;;;;4907160;29;20040;-62
2021/09/03 13:32:21;;;;;;;7.82;4.25;;;;;;;;;;4917986;28;20027;-62
2021/09/03 13:34:46;;;;;;;9.65;4.72;;;;;;;;;;4922451;28;22131;-62
2021/09/03 13:37:16;;;;;;;8.25;4.32;;;;;;;;;;4921751;28;20239;-61
2021/09/03 13:39:46;;;;;;;7.25;4.20;;;;;;;;;;4922771;28;20108;-62
2021/09/03 13:42:13;;;;;;;9.68;4.47;;;;;;;;;;4920937;28;20062;-62
2021/09/03 13:44:38;;;;;;;6.60;4.32;;;;;;;;;;4937356;28;20746;-61
2021/09/03 13:47:04;;;;;;;9.38;4.65;;;;;;;;;;4904947;29;20554;-61
2021/09/03 13:49:32;;;;;;;10.80;4.82;;;;;;;;;;4927220;28;20046;-61
2021/09/03 13:51:59;;;;;;;7.35;4.47;;;;;;;;;;4920639;28;20126;-62
2021/09/03 13:54:25;;;;;;;8.20;4.50;;;;;;;;;;4920722;28;20098;-61
2021/09/03 13:56:52;;;;;;;8.13;4.38;;;;;;;;;;4918887;28;21038;-62
2021/09/03 13:59:20;;;;;;;7.65;4.57;;;;;;;;;;4921113;28;20115;-62
2021/09/03 14:01:46;;;;;;;9.55;4.68;;;;;;;;;;4903901;29;20042;-62
2021/09/03 14:04:13;;;;;;;9.68;4.65;;;;;;;;;;4920060;28;20031;-62
2021/09/03 14:06:41;;;;;;;8.65;4.13;;;;;;;;;;4921658;28;20115;-62
2021/09/03 14:09:09;;;;;;;10.60;4.63;;;;;;;;;;4919738;28;20031;-62
2021/09/03 14:12:01;;;;;;;9.02;4.50;;;;;;;;;;4921502;28;20044;-62
2021/09/03 14:18:06;;;;;;;10.40;4.78;;;;;;;;;;4921355;28;20093;-61
2021/09/03 14:20:35;;;;;;;10.23;4.97;;;;;;;;;;4918481;28;20054;-61
2021/09/03 14:23:03;;;;;;;12.80;4.80;;;;;;;;;;4935214;28;20059;-61
2021/09/03 14:25:31;;;;;;;6.40;4.38;;;;;;;;;;4922033;28;21518;-61
2021/09/03 14:28:04;;;;;;;9.07;4.43;;;;;;;;;;4900722;28;20054;-61
2021/09/03 14:30:30;;;;;;;9.07;4.90;;;;;;;;;;4922135;28;20046;-62
2021/09/03 14:33:29;;;;;;;6.70;4.32;;;;;;;;;;4895580;28;20078;-62
2021/09/03 14:35:55;;;;;;;7.95;5.00;;;;;;;;;;4904535;29;20091;-61
2021/09/03 14:38:20;;;;;;;8.27;4.88;;;;;;;;;;4920247;28;22283;-62
2021/09/03 14:40:45;;;;;;;16.48;5.03;;;;;;;;;;4910129;28;20082;-61
2021/09/03 14:43:15;;;;;;;6.70;5.05;;;;;;;;;;4932396;28;20056;-61
2021/09/03 14:45:41;;;;;;;7.13;5.03;;;;;;;;;;4919306;28;20039;-61
2021/09/03 14:48:06;;;;;;;9.85;5.07;;;;;;;;;;4921056;28;20043;-62
2021/09/03 14:50:34;;;;;;;11.45;5.60;;;;;;;;;;4935184;28;20033;-61
2021/09/03 14:53:00;;;;;;;6.50;4.50;;;;;;;;;;4918293;28;20037;-61
2021/09/03 14:55:26;;;;;;;13.23;5.18;;;;;;;;;;4919364;28;20039;-61
2021/09/03 14:58:24;;;;;;;10.77;5.78;;;;;;;;;;4934161;28;20040;-61
2021/09/03 15:00:50;;;;;;;9.98;5.03;;;;;;;;;;4920272;28;20775;-60
2021/09/03 15:03:18;;;;;;;9.68;5.55;;;;;;;;;;4919382;28;20031;-61
2021/09/03 15:05:46;;;;;;;12.00;5.93;;;;;;;;;;4917835;28;20036;-60
2021/09/03 15:08:14;;;;;;;8.27;5.03;;;;;;;;;;4917541;28;20027;-61
2021/09/03 15:10:40;;;;;;;13.32;5.13;;;;;;;;;;4920277;28;20655;-61
2021/09/03 15:13:08;;;;;;;12.25;5.70;;;;;;;;;;4918130;28;20042;-61
2021/09/03 15:15:36;;;;;;;9.93;6.32;;;;;;;;;;4918710;28;21039;-60
2021/09/03 15:18:03;;;;;;;9.43;5.63;;;;;;;;;;4918696;28;20031;-61
2021/09/03 15:20:32;;;;;;;13.73;6.28;;;;;;;;;;4917607;28;20044;-62
2021/09/03 15:22:57;;;;;;;14.55;6.82;;;;;;;;;;4917231;28;20097;-61
2021/09/03 15:25:27;;;;;;;11.82;5.80;;;;;;;;;;4902760;28;20047;-61
2021/09/03 15:27:58;;;;;;;15.05;6.72;;;;;;;;;;4917202;28;20448;-60
2021/09/03 15:30:26;;;;;;;12.23;7.07;;;;;;;;;;4922722;28;21011;-61
2021/09/03 15:32:57;;;;;;;11.82;6.10;;;;;;;;;;4919211;28;20213;-61
2021/09/03 15:35:33;;;;;;;15.70;7.47;;;;;;;;;;4917938;28;20897;-61
2021/09/03 15:38:11;;;;;;;14.27;6.88;;;;;;;;;;4934567;28;20046;-61